Young America, IN (46998)

3:52 PM EST on March 04, 2015 (GMT -0500)
Bad B-rad's Weather Pad | Change Station
CLOSE
Current Station
Personal Weather Station
Location: Galveston, IN
Elevation: 761 ft
Nearby Weather Stations

Elev 761 ft 40.59 °N, 86.27 °W | Updated 21 seconds ago

Mostly Cloudy
Mostly Cloudy
23.4 °F
Feels Like 11 °F
N
13.6
Wind Variable Wind from North
Gusts 19.0 mph

Today
High -- | Low -- °F
--% Chance of Precip.
Yesterday
High -- | Low -- °F
Precip. -- in
7:14 AM 6:39 PM
Waxing Gibbous, 99% visible
Pressure 30.11 in
Visibility 10.0 miles
Clouds Mostly Cloudy 1800 ft
Overcast 2300 ft
Windchill 11 °F
Dew Point 15 °F
Humidity 69%
Rainfall 0.00 in
Snow Depth Not available.
UV 0.0 out of 12
Pollen .70 out of 12
Air Quality Not available.
Flu Activity Not available.
METAR KGGP 042035Z AUTO 28009KT 10SM BKN018 OVC023 M04/M07 A3011 RMK AO2

More Conditions Fewer Conditions

Pressure 30.11 in
Visibility 10.0 miles
Clouds Mostly Cloudy 1800 ft
Overcast 2300 ft
Windchill 11 °F
Dew Point 15 °F
Humidity 69%
Rainfall 0.00 in
Snow Depth Not available.
UV 0.0 out of 12
Pollen .70 out of 12
Air Quality Not available.
Flu Activity Not available.
METAR KGGP 042035Z AUTO 28009KT 10SM BKN018 OVC023 M04/M07 A3011 RMK AO2

More Conditions Fewer Conditions

10-Day Weather Forecast

Almanac

Astronomy

Mar. 04, 2015 Rise Set
Actual Time
Civil Twilight
Nautical Twilight
Astronomical Twilight
Moon
Length of Visible Light
Length of Day
Tomorrow will be .
, % of the Moon is Illuminated

Today's Extremes

State Highs State Lows

Community

WunderPhotos

Upload Photos

1,802,578 photos uploaded!

WunderBlogs® & News

Nearby

Air Quality

  Air Quality AQ Index Pollutant
Not available.

Snow Depth

Station Depth Elevation

Earthquake Activity

City Distance Mag. Time & Date
Minimum magnitude displayed is 2.5.

Coastal Water Temperatures

Place Temperature

Nearby Weather Stations